createdAt,value
2022-11-08T00:00:05.626Z,2.90
2022-11-08T00:05:54.980Z,2.97
2022-11-08T00:12:02.604Z,2.80
2022-11-08T00:14:47.975Z,3.20
2022-11-08T00:17:33.267Z,3.00
2022-11-08T00:20:18.504Z,2.87
2022-11-08T00:23:04.625Z,2.43
2022-11-08T00:25:54.808Z,3.63
2022-11-08T00:28:40.029Z,3.47
2022-11-08T00:31:25.189Z,2.37
2022-11-08T00:34:10.729Z,2.93
2022-11-08T00:36:56.214Z,2.70
2022-11-08T00:39:41.989Z,3.80
2022-11-08T00:42:27.515Z,2.37
2022-11-08T00:45:12.930Z,3.00
2022-11-08T00:47:58.169Z,3.23
2022-11-08T00:50:43.477Z,5.10
2022-11-08T00:53:29.264Z,2.77
2022-11-08T00:56:14.832Z,3.00
2022-11-08T00:59:00.522Z,2.67
2022-11-08T01:01:47.097Z,3.03
2022-11-08T01:04:32.240Z,2.33
2022-11-08T01:07:17.718Z,3.10
2022-11-08T01:10:03.157Z,2.60
2022-11-08T01:12:48.440Z,2.67
2022-11-08T01:15:37.924Z,2.53
2022-11-08T01:18:23.157Z,2.73
2022-11-08T01:21:08.722Z,2.33
2022-11-08T01:23:55.096Z,2.20
2022-11-08T01:26:40.626Z,2.53
2022-11-08T01:29:25.984Z,3.87
2022-11-08T01:32:11.077Z,2.00
2022-11-08T01:34:56.647Z,2.53
2022-11-08T01:37:41.923Z,1.47
2022-11-08T01:40:28.636Z,1.90
2022-11-08T01:43:44.070Z,3.17
2022-11-08T01:46:45.457Z,2.57
2022-11-08T01:49:45.631Z,2.23
2022-11-08T01:52:42.647Z,2.70
2022-11-08T01:55:36.289Z,2.23
2022-11-08T02:01:10.203Z,2.90
2022-11-08T02:03:55.677Z,3.07
2022-11-08T02:06:42.440Z,1.80
2022-11-08T02:09:28.580Z,2.43
2022-11-08T02:12:15.799Z,3.80
2022-11-08T02:15:01.842Z,2.13
2022-11-08T02:17:47.356Z,2.80
2022-11-08T02:20:34.167Z,2.33
2022-11-08T02:23:27.556Z,2.60
2022-11-08T02:26:13.355Z,2.15
2022-11-08T02:28:59.097Z,2.50
2022-11-08T02:31:44.358Z,2.30
2022-11-08T02:34:32.344Z,1.93
2022-11-08T02:37:20.199Z,3.17
2022-11-08T02:40:06.008Z,2.67
2022-11-08T02:42:51.259Z,2.70
2022-11-08T02:45:36.566Z,2.10
2022-11-08T02:48:21.976Z,1.73
2022-11-08T02:51:07.554Z,1.83
2022-11-08T02:53:52.656Z,2.17
2022-11-08T02:56:37.902Z,2.43
2022-11-08T02:59:23.074Z,2.37
2022-11-08T03:02:08.722Z,2.70
2022-11-08T03:04:54.153Z,2.73
2022-11-08T03:07:39.497Z,2.60
2022-11-08T03:10:26.638Z,1.87
2022-11-08T03:13:12.078Z,4.07
2022-11-08T03:15:57.353Z,1.97
2022-11-08T03:18:42.516Z,1.87
2022-11-08T03:21:27.822Z,1.80
2022-11-08T03:24:13.116Z,2.40
2022-11-08T03:26:58.299Z,1.33
2022-11-08T03:29:43.518Z,2.47
2022-11-08T03:32:28.776Z,1.63
2022-11-08T03:35:14.576Z,4.57
2022-11-08T03:37:59.969Z,2.13
2022-11-08T03:40:46.254Z,2.70
2022-11-08T03:43:31.572Z,1.87
2022-11-08T03:46:16.766Z,2.53
2022-11-08T03:49:02.155Z,2.80
2022-11-08T03:51:47.428Z,2.37
2022-11-08T03:54:32.730Z,1.53
2022-11-08T03:57:18.003Z,1.87
2022-11-08T04:00:05.411Z,3.77
2022-11-08T04:03:02.452Z,4.55
2022-11-08T04:05:47.985Z,1.93
2022-11-08T04:08:33.272Z,2.63
2022-11-08T04:11:37.093Z,4.07
2022-11-08T04:14:40.681Z,3.88
2022-11-08T04:17:46.057Z,4.33
2022-11-08T04:20:50.024Z,3.83
2022-11-08T04:23:37.008Z,3.28
2022-11-08T04:26:22.687Z,5.07
2022-11-08T04:29:09.352Z,4.07
2022-11-08T04:31:54.303Z,3.53
2022-11-08T04:34:39.642Z,2.93
2022-11-08T04:37:25.023Z,2.47
2022-11-08T04:40:11.247Z,4.13
2022-11-08T04:42:56.983Z,3.63
2022-11-08T04:45:42.387Z,3.17
2022-11-08T04:48:27.802Z,4.60
2022-11-08T04:51:18.822Z,3.40
2022-11-08T04:54:07.618Z,5.13
2022-11-08T04:56:52.898Z,2.90
2022-11-08T04:59:38.183Z,3.03
2022-11-08T05:02:23.387Z,4.87
2022-11-08T05:05:10.053Z,5.10
2022-11-08T05:07:55.407Z,3.00
2022-11-08T05:10:40.652Z,4.70
2022-11-08T05:13:26.003Z,4.90
2022-11-08T05:16:17.271Z,5.33
2022-11-08T05:19:03.370Z,4.83
2022-11-08T05:22:07.356Z,5.90
2022-11-08T05:24:53.475Z,6.17
2022-11-08T05:27:38.767Z,4.27
2022-11-08T05:30:24.060Z,4.67
2022-11-08T05:33:09.756Z,5.43
2022-11-08T05:35:55.725Z,5.27
2022-11-08T05:38:41.981Z,3.80
2022-11-08T05:41:27.583Z,5.43
2022-11-08T05:44:12.790Z,4.93
2022-11-08T05:46:58.203Z,4.63
2022-11-08T05:49:43.507Z,4.47
2022-11-08T05:52:29.061Z,4.73
2022-11-08T05:55:14.522Z,3.07
2022-11-08T05:57:59.857Z,4.03
2022-11-08T06:00:45.337Z,5.27
2022-11-08T06:03:30.988Z,3.60
2022-11-08T06:06:20.849Z,4.43
2022-11-08T06:09:06.310Z,4.33
2022-11-08T06:11:51.469Z,3.87
2022-11-08T06:14:36.816Z,3.77
2022-11-08T06:17:26.014Z,8.17
2022-11-08T06:20:14.450Z,5.30
2022-11-08T06:23:00.235Z,6.13
2022-11-08T06:25:47.696Z,4.70
2022-11-08T06:28:33.084Z,37.70
2022-11-08T06:31:18.631Z,18.37
2022-11-08T06:34:03.877Z,7.07
2022-11-08T06:36:49.045Z,7.33
2022-11-08T06:39:34.450Z,4.57
2022-11-08T06:42:19.736Z,4.60
2022-11-08T06:45:05.446Z,9.20
2022-11-08T06:48:00.714Z,9.47
2022-11-08T06:50:46.336Z,9.70
2022-11-08T06:53:32.453Z,12.80
2022-11-08T06:56:17.991Z,8.50
2022-11-08T06:59:03.517Z,11.37
2022-11-08T07:01:49.131Z,7.80
2022-11-08T07:04:34.451Z,8.50
2022-11-08T07:07:19.713Z,7.20
2022-11-08T07:10:06.149Z,9.13
2022-11-08T07:13:00.022Z,12.23
2022-11-08T07:15:47.632Z,8.47
2022-11-08T07:18:33.234Z,10.73
2022-11-08T07:21:18.689Z,8.43
2022-11-08T07:24:04.257Z,9.50
2022-11-08T07:26:49.727Z,11.23
2022-11-08T07:29:35.062Z,9.23
2022-11-08T07:32:20.296Z,8.50
2022-11-08T07:35:06.263Z,7.90
2022-11-08T07:37:51.744Z,7.53
2022-11-08T07:40:37.116Z,8.53
2022-11-08T07:43:22.375Z,8.37
2022-11-08T07:46:07.764Z,8.10
2022-11-08T07:48:52.937Z,7.20
2022-11-08T07:51:38.234Z,6.47
2022-11-08T07:54:23.289Z,8.40
2022-11-08T07:57:08.538Z,9.13
2022-11-08T07:59:53.897Z,6.37
2022-11-08T08:02:39.163Z,6.33
2022-11-08T08:05:25.334Z,6.93
2022-11-08T08:08:13.776Z,8.33
2022-11-08T08:11:02.659Z,7.17
2022-11-08T08:13:47.883Z,8.03
2022-11-08T08:16:33.132Z,5.50
2022-11-08T08:19:18.642Z,8.23
2022-11-08T08:22:03.836Z,9.27
2022-11-08T08:24:49.091Z,7.90
2022-11-08T08:27:34.402Z,10.53
2022-11-08T08:30:20.649Z,6.07
2022-11-08T08:33:34.154Z,6.27
2022-11-08T08:36:17.600Z,6.07
2022-11-08T08:39:03.074Z,7.07
2022-11-08T08:41:48.281Z,8.67
2022-11-08T08:44:33.497Z,7.10
2022-11-08T08:47:18.747Z,6.03
2022-11-08T08:50:04.288Z,5.47
2022-11-08T08:52:49.787Z,7.23
2022-11-08T08:55:37.815Z,6.23
2022-11-08T08:58:23.463Z,5.90
2022-11-08T09:04:18.143Z,7.57
2022-11-08T09:07:03.376Z,7.07
2022-11-08T09:09:48.812Z,6.90
2022-11-08T09:12:35.074Z,5.70
2022-11-08T09:15:20.679Z,9.30
2022-11-08T09:18:06.754Z,7.27
2022-11-08T09:20:51.849Z,6.53
2022-11-08T09:23:37.119Z,7.17
2022-11-08T09:26:22.287Z,6.27
2022-11-08T09:29:07.522Z,5.37
2022-11-08T09:31:53.564Z,5.73
2022-11-08T09:34:39.229Z,4.97
2022-11-08T09:37:25.549Z,5.87
2022-11-08T09:40:20.644Z,7.00
2022-11-08T09:43:37.950Z,6.77
2022-11-08T09:46:53.573Z,4.33
2022-11-08T09:49:47.163Z,5.10
2022-11-08T09:52:35.029Z,6.70
2022-11-08T09:55:24.825Z,4.77
2022-11-08T09:58:36.829Z,5.77
2022-11-08T10:01:26.946Z,6.97
2022-11-08T10:04:16.791Z,6.33
2022-11-08T10:07:07.629Z,4.60
2022-11-08T10:10:34.334Z,6.17
2022-11-08T10:13:32.195Z,6.20
2022-11-08T10:16:27.547Z,4.13
2022-11-08T10:19:37.359Z,5.83
2022-11-08T10:22:36.392Z,5.40
2022-11-08T10:25:33.031Z,4.47
2022-11-08T10:28:23.214Z,5.50
2022-11-08T10:31:12.782Z,5.13
2022-11-08T10:34:01.951Z,6.40
2022-11-08T10:36:49.214Z,4.03
2022-11-08T10:39:41.330Z,5.33
2022-11-08T10:42:50.461Z,5.37
2022-11-08T10:45:35.836Z,6.20
2022-11-08T10:48:21.363Z,3.97
2022-11-08T10:51:08.300Z,5.87
2022-11-08T10:53:53.672Z,5.07
2022-11-08T10:56:55.812Z,6.37
2022-11-08T10:59:42.084Z,4.53
2022-11-08T11:02:35.643Z,5.63
2022-11-08T11:05:31.792Z,3.67
2022-11-08T11:08:17.565Z,6.20
2022-11-08T11:11:32.206Z,4.77
2022-11-08T11:14:22.731Z,3.47
2022-11-08T11:17:17.494Z,4.23
2022-11-08T11:20:02.882Z,4.17
2022-11-08T11:22:49.818Z,4.50
2022-11-08T11:25:34.998Z,5.17
2022-11-08T11:28:20.487Z,4.63
2022-11-08T11:31:17.078Z,4.43
2022-11-08T11:34:17.999Z,4.30
2022-11-08T11:37:09.991Z,5.13
2022-11-08T11:40:07.349Z,4.10
2022-11-08T11:43:11.559Z,5.30
2022-11-08T11:46:00.410Z,4.67
2022-11-08T11:49:06.893Z,5.57
2022-11-08T11:51:56.604Z,6.07
2022-11-08T11:54:45.151Z,4.73
2022-11-08T11:57:43.652Z,4.50
2022-11-08T12:00:29.067Z,4.47
2022-11-08T12:03:47.812Z,5.67
2022-11-08T12:06:58.604Z,4.40
2022-11-08T12:10:30.303Z,4.73
2022-11-08T12:13:23.872Z,4.70
2022-11-08T12:19:38.302Z,4.57
2022-11-08T12:25:41.423Z,3.10
2022-11-08T12:28:39.819Z,3.87
2022-11-08T12:31:35.104Z,5.17
2022-11-08T12:34:20.337Z,3.33
2022-11-08T12:37:47.222Z,4.23
2022-11-08T12:40:53.036Z,4.07
2022-11-08T12:44:04.410Z,3.23
2022-11-08T12:47:15.631Z,3.20
2022-11-08T12:50:20.779Z,3.93
2022-11-08T12:53:45.408Z,3.27
2022-11-08T12:56:39.531Z,4.87
2022-11-08T12:59:42.689Z,2.73
2022-11-08T13:02:31.990Z,3.33
2022-11-08T13:05:25.805Z,3.73
2022-11-08T13:08:40.587Z,3.63
2022-11-08T13:12:07.271Z,4.73
2022-11-08T13:14:52.857Z,3.20
2022-11-08T13:17:38.199Z,3.17
2022-11-08T13:20:46.545Z,4.97
2022-11-08T13:23:33.190Z,3.60
2022-11-08T13:26:24.502Z,3.93
2022-11-08T13:29:16.027Z,3.47
2022-11-08T13:32:18.388Z,3.90
2022-11-08T13:35:27.074Z,2.30
2022-11-08T13:38:53.085Z,3.00
2022-11-08T13:42:17.045Z,3.17
2022-11-08T13:45:08.443Z,3.88
2022-11-08T13:47:57.167Z,3.57
2022-11-08T13:50:48.049Z,4.70
2022-11-08T13:53:49.887Z,3.47
2022-11-08T13:56:45.873Z,2.70
2022-11-08T13:59:31.456Z,3.43
2022-11-08T14:02:23.319Z,3.37
2022-11-08T14:05:22.493Z,2.80
2022-11-08T14:08:19.940Z,4.60
2022-11-08T14:11:29.769Z,4.63
2022-11-08T14:14:34.098Z,3.00
2022-11-08T14:17:26.634Z,3.33
2022-11-08T14:20:28.184Z,4.13
2022-11-08T14:23:20.118Z,4.57
2022-11-08T14:26:21.588Z,2.63
2022-11-08T14:35:26.470Z,3.10
2022-11-08T14:38:17.084Z,2.87
2022-11-08T14:41:05.362Z,4.53
2022-11-08T14:43:51.996Z,4.43
2022-11-08T14:46:41.413Z,5.90
2022-11-08T14:49:35.568Z,3.80
2022-11-08T14:52:26.377Z,3.83
2022-11-08T14:55:14.314Z,7.07
2022-11-08T14:58:13.062Z,4.27
2022-11-08T15:01:01.457Z,4.13
2022-11-08T15:03:56.338Z,4.77
2022-11-08T15:06:53.659Z,5.57
2022-11-08T15:09:38.924Z,4.37
2022-11-08T15:12:25.076Z,4.97
2022-11-08T15:15:24.076Z,9.93
2022-11-08T15:18:18.032Z,4.33
2022-11-08T15:21:07.709Z,5.50
2022-11-08T15:23:54.007Z,5.90
2022-11-08T15:26:40.554Z,4.50
2022-11-08T15:29:26.634Z,5.60
2022-11-08T15:32:18.398Z,3.70
2022-11-08T15:35:05.789Z,5.30
2022-11-08T15:37:52.967Z,5.93
2022-11-08T15:40:38.811Z,4.57
2022-11-08T15:43:44.903Z,5.93
2022-11-08T15:46:36.900Z,3.70
2022-11-08T15:49:29.238Z,5.07
2022-11-08T15:52:19.153Z,4.43
2022-11-08T15:55:07.821Z,5.73
2022-11-08T15:57:54.593Z,4.77
2022-11-08T16:00:45.673Z,5.37
2022-11-08T16:03:31.355Z,4.57
2022-11-08T16:06:16.820Z,7.27
2022-11-08T16:09:02.198Z,6.33
2022-11-08T16:11:48.553Z,8.27
2022-11-08T16:14:33.944Z,5.87
2022-11-08T16:17:19.168Z,8.40
2022-11-08T16:20:28.094Z,4.83
2022-11-08T16:23:14.864Z,9.57
2022-11-08T16:26:01.607Z,9.07
2022-11-08T16:28:47.105Z,9.07
2022-11-08T16:31:33.118Z,10.37
2022-11-08T16:34:18.883Z,11.73
2022-11-08T16:37:03.974Z,14.47
2022-11-08T16:39:49.264Z,13.77
2022-11-08T16:42:34.679Z,13.23
2022-11-08T16:45:43.335Z,10.33
2022-11-08T16:48:27.903Z,12.00
2022-11-08T16:51:19.113Z,12.90
2022-11-08T16:54:17.178Z,13.13
2022-11-08T16:57:28.594Z,13.43
2022-11-08T17:00:10.601Z,10.20
2022-11-08T17:02:56.381Z,14.70
2022-11-08T17:05:41.795Z,13.57
2022-11-08T17:08:27.103Z,16.00
2022-11-08T17:11:18.519Z,16.97
2022-11-08T17:14:04.447Z,16.40
2022-11-08T17:16:52.563Z,13.63
2022-11-08T17:19:38.126Z,13.20
2022-11-08T17:22:23.375Z,14.93
2022-11-08T17:25:11.848Z,13.10
2022-11-08T17:27:57.525Z,15.97
2022-11-08T17:30:44.497Z,15.93
2022-11-08T17:33:29.955Z,18.63
2022-11-08T17:36:15.412Z,18.67
2022-11-08T17:39:00.607Z,16.43
2022-11-08T17:41:46.107Z,16.77
2022-11-08T17:44:31.586Z,17.57
2022-11-08T17:47:17.395Z,24.90
2022-11-08T17:50:03.916Z,21.87
2022-11-08T17:52:53.098Z,17.73
2022-11-08T17:55:38.458Z,12.77
2022-11-08T17:58:25.942Z,16.73
2022-11-08T18:01:16.250Z,12.90
2022-11-08T18:04:03.609Z,17.47
2022-11-08T18:06:48.821Z,15.47
2022-11-08T18:09:34.111Z,14.67
2022-11-08T18:12:19.323Z,11.50
2022-11-08T18:15:06.412Z,11.43
2022-11-08T18:17:52.312Z,13.33
2022-11-08T18:20:38.791Z,19.10
2022-11-08T18:23:24.234Z,12.73
2022-11-08T18:26:10.633Z,17.53
2022-11-08T18:28:56.068Z,21.43
2022-11-08T18:31:41.328Z,15.37
2022-11-08T18:34:26.747Z,16.60
2022-11-08T18:37:12.289Z,16.83
2022-11-08T18:39:58.160Z,14.27
2022-11-08T18:42:43.738Z,14.87
2022-11-08T18:45:29.129Z,16.93
2022-11-08T18:48:14.416Z,19.20
2022-11-08T18:50:59.628Z,18.40
2022-11-08T18:53:45.266Z,19.10
2022-11-08T18:56:30.731Z,17.27
2022-11-08T18:59:16.094Z,12.97
2022-11-08T19:02:01.443Z,19.03
2022-11-08T19:04:48.083Z,17.90
2022-11-08T19:07:35.854Z,13.93
2022-11-08T19:10:21.094Z,14.83
2022-11-08T19:13:06.416Z,14.10
2022-11-08T19:15:58.870Z,15.77
2022-11-08T19:18:45.585Z,13.88
2022-11-08T19:21:30.847Z,14.70
2022-11-08T19:24:16.725Z,13.83
2022-11-08T19:27:02.341Z,14.27
2022-11-08T19:29:47.698Z,16.13
2022-11-08T19:32:32.822Z,15.97
2022-11-08T19:35:18.834Z,16.17
2022-11-08T19:38:04.044Z,18.97
2022-11-08T19:40:49.330Z,13.07
2022-11-08T19:43:38.544Z,14.67
2022-11-08T19:46:28.889Z,13.20
2022-11-08T19:49:14.216Z,14.60
2022-11-08T19:51:59.943Z,15.90
2022-11-08T19:54:45.832Z,12.13
2022-11-08T19:57:32.509Z,11.93
2022-11-08T20:00:18.363Z,17.63
2022-11-08T20:03:04.248Z,12.73
2022-11-08T20:05:54.031Z,12.77
2022-11-08T20:08:39.592Z,11.90
2022-11-08T20:11:28.217Z,13.07
2022-11-08T20:14:14.616Z,12.13
2022-11-08T20:17:00.280Z,13.43
2022-11-08T20:19:46.592Z,11.93
2022-11-08T20:22:31.739Z,12.60
2022-11-08T20:25:17.336Z,14.77
2022-11-08T20:28:02.633Z,14.87
2022-11-08T20:30:47.879Z,11.03
2022-11-08T20:33:35.341Z,13.17
2022-11-08T20:36:22.429Z,15.03
2022-11-08T20:39:08.266Z,14.47
2022-11-08T20:41:53.526Z,12.53
2022-11-08T20:44:38.715Z,10.90
2022-11-08T20:47:24.122Z,11.03
2022-11-08T20:50:10.775Z,11.33
2022-11-08T20:52:55.984Z,9.53
2022-11-08T20:55:41.331Z,11.57
2022-11-08T20:58:27.910Z,10.90
2022-11-08T21:01:16.517Z,12.83
2022-11-08T21:04:01.974Z,14.63
2022-11-08T21:06:47.238Z,10.90
2022-11-08T21:09:48.322Z,11.20
2022-11-08T21:12:34.843Z,11.77
2022-11-08T21:15:25.820Z,10.37
2022-11-08T21:18:12.428Z,9.43
2022-11-08T21:21:05.657Z,11.03
2022-11-08T21:23:51.914Z,10.80
2022-11-08T21:26:37.097Z,10.47
2022-11-08T21:29:22.357Z,11.13
2022-11-08T21:32:07.747Z,10.33
2022-11-08T21:34:52.958Z,10.37
2022-11-08T21:37:38.221Z,12.00
2022-11-08T21:40:23.399Z,12.87
2022-11-08T21:43:08.829Z,14.27
2022-11-08T21:45:54.143Z,9.57
2022-11-08T21:48:39.397Z,15.30
2022-11-08T21:51:26.068Z,9.53
2022-11-08T21:54:11.484Z,11.23
2022-11-08T21:56:56.770Z,9.00
2022-11-08T21:59:41.943Z,11.10
2022-11-08T22:02:27.453Z,9.97
2022-11-08T22:05:12.696Z,10.43
2022-11-08T22:07:57.904Z,10.27
2022-11-08T22:10:45.677Z,10.10
2022-11-08T22:13:31.262Z,8.03
2022-11-08T22:16:16.528Z,14.57
2022-11-08T22:19:05.893Z,10.23
2022-11-08T22:21:51.524Z,11.10
2022-11-08T22:24:36.865Z,10.10
2022-11-08T22:27:22.326Z,9.57
2022-11-08T22:30:10.424Z,9.20
2022-11-08T22:33:00.713Z,7.47
2022-11-08T22:35:47.366Z,10.00
2022-11-08T22:38:32.766Z,10.23
2022-11-08T22:41:19.275Z,12.37
2022-11-08T22:44:10.552Z,8.27
2022-11-08T22:46:57.430Z,7.68
2022-11-08T22:49:45.127Z,10.57
2022-11-08T22:52:30.894Z,7.93
2022-11-08T22:55:16.378Z,7.23
2022-11-08T22:58:01.634Z,9.63
2022-11-08T23:00:46.971Z,7.93
2022-11-08T23:03:32.284Z,7.17
2022-11-08T23:06:17.532Z,7.73
2022-11-08T23:09:03.417Z,11.67
2022-11-08T23:12:07.845Z,7.67
2022-11-08T23:15:11.940Z,6.47
2022-11-08T23:17:57.202Z,8.70
2022-11-08T23:21:01.138Z,8.40
2022-11-08T23:24:05.070Z,11.67
2022-11-08T23:27:09.093Z,9.27
2022-11-08T23:30:12.901Z,8.13
2022-11-08T23:36:03.422Z,7.43
2022-11-08T23:38:48.976Z,6.67
2022-11-08T23:41:52.772Z,7.63
2022-11-08T23:44:37.951Z,9.95
2022-11-08T23:47:23.229Z,9.83
2022-11-08T23:50:09.954Z,7.73
2022-11-08T23:52:55.385Z,7.47
2022-11-08T23:55:40.614Z,7.90
2022-11-08T23:58:26.641Z,7.03
